Time;durP1;ratioP1;P1;durP2;ratioP2;P2;SDS_P1;SDS_P2;PMS_P1;PMS_P2;Temp;Humidity;BMP_temperature;BMP_pressure;BME280_temperature;BME280_humidity;BME280_pressure;Samples;Min_cycle;Max_cycle;Signal;HPM_P1;HPM_P2
2022/03/06 00:00:38;;;;;;;18.60;9.27;;;;;;;;;;4993714;28;20034;-70
2022/03/06 00:03:04;;;;;;;18.67;8.68;;;;;;;;;;4993476;28;20033;-70
2022/03/06 00:05:30;;;;;;;19.33;10.20;;;;;;;;;;4993595;28;20062;-70
2022/03/06 00:07:56;;;;;;;19.95;8.45;;;;;;;;;;4993415;28;20092;-71
2022/03/06 00:10:22;;;;;;;18.05;9.18;;;;;;;;;;4993380;28;20030;-70
2022/03/06 00:12:47;;;;;;;16.85;8.82;;;;;;;;;;4993711;28;20322;-70
2022/03/06 00:15:12;;;;;;;19.15;8.80;;;;;;;;;;4993337;28;20523;-71
2022/03/06 00:17:37;;;;;;;15.40;8.10;;;;;;;;;;4993747;28;20050;-70
2022/03/06 00:20:08;;;;;;;14.32;8.43;;;;;;;;;;4993113;28;20031;-69
2022/03/06 00:22:34;;;;;;;16.30;8.38;;;;;;;;;;4993337;28;20026;-69
2022/03/06 00:24:59;;;;;;;16.65;8.55;;;;;;;;;;4993065;28;20031;-69
2022/03/06 00:27:24;;;;;;;14.07;6.97;;;;;;;;;;4992588;28;20117;-70
2022/03/06 00:29:50;;;;;;;15.13;6.97;;;;;;;;;;4993114;28;20018;-70
2022/03/06 00:32:15;;;;;;;15.05;6.78;;;;;;;;;;4993518;28;20026;-70
2022/03/06 00:34:42;;;;;;;10.75;6.07;;;;;;;;;;4993025;28;20468;-71
2022/03/06 00:37:07;;;;;;;14.23;6.80;;;;;;;;;;4993200;28;20026;-70
2022/03/06 00:39:34;;;;;;;13.82;7.15;;;;;;;;;;4992934;28;20547;-71
2022/03/06 00:42:00;;;;;;;17.38;8.20;;;;;;;;;;4992905;28;20125;-70
2022/03/06 00:44:25;;;;;;;18.85;8.25;;;;;;;;;;4992808;28;20118;-70
2022/03/06 00:46:51;;;;;;;17.40;8.93;;;;;;;;;;4992528;28;20073;-71
2022/03/06 00:49:16;;;;;;;15.35;8.20;;;;;;;;;;4992571;28;20057;-70
2022/03/06 00:51:41;;;;;;;15.50;8.05;;;;;;;;;;4992689;28;20046;-70
2022/03/06 00:54:06;;;;;;;16.13;8.57;;;;;;;;;;4992683;28;20026;-70
2022/03/06 00:56:32;;;;;;;19.63;8.98;;;;;;;;;;4992662;28;20117;-70
2022/03/06 00:58:57;;;;;;;16.85;8.07;;;;;;;;;;4992500;28;20030;-72
2022/03/06 01:01:22;;;;;;;15.90;8.00;;;;;;;;;;4992411;28;20034;-70
2022/03/06 01:03:48;;;;;;;18.25;8.85;;;;;;;;;;4991247;28;20034;-70
2022/03/06 01:06:13;;;;;;;19.75;9.18;;;;;;;;;;4992653;28;20121;-70
2022/03/06 01:08:38;;;;;;;17.80;8.93;;;;;;;;;;4992254;28;20459;-70
2022/03/06 01:11:04;;;;;;;18.23;9.85;;;;;;;;;;4992331;28;20034;-70
2022/03/06 01:13:29;;;;;;;18.85;10.05;;;;;;;;;;4992477;28;20088;-70
2022/03/06 01:15:54;;;;;;;20.15;10.30;;;;;;;;;;4991905;28;20032;-70
2022/03/06 01:18:20;;;;;;;19.48;9.25;;;;;;;;;;4991992;28;20037;-71
2022/03/06 01:20:46;;;;;;;20.85;10.15;;;;;;;;;;4992180;28;20030;-70
2022/03/06 01:23:11;;;;;;;17.25;8.70;;;;;;;;;;4992299;28;20030;-70
2022/03/06 01:25:37;;;;;;;18.73;9.10;;;;;;;;;;4992249;28;20484;-71
2022/03/06 01:28:03;;;;;;;17.88;9.50;;;;;;;;;;4991976;28;20480;-70
2022/03/06 01:30:29;;;;;;;22.83;10.48;;;;;;;;;;4991837;28;20089;-70
2022/03/06 01:32:54;;;;;;;19.77;9.52;;;;;;;;;;4991808;28;20031;-71
2022/03/06 01:35:20;;;;;;;19.73;9.48;;;;;;;;;;4991895;28;20022;-70
2022/03/06 01:37:46;;;;;;;19.10;9.93;;;;;;;;;;4991197;28;20510;-70
2022/03/06 01:40:14;;;;;;;20.10;10.60;;;;;;;;;;4991389;28;20522;-70
2022/03/06 01:42:42;;;;;;;21.85;10.68;;;;;;;;;;4991909;28;20085;-70
2022/03/06 01:45:11;;;;;;;19.67;9.55;;;;;;;;;;4991314;28;20548;-71
2022/03/06 01:47:42;;;;;;;18.30;9.07;;;;;;;;;;4991589;28;20030;-70
2022/03/06 01:50:19;;;;;;;23.25;10.48;;;;;;;;;;4991489;28;20073;-71
2022/03/06 01:52:46;;;;;;;19.08;9.45;;;;;;;;;;4991586;28;20361;-71
2022/03/06 01:55:13;;;;;;;18.27;9.68;;;;;;;;;;4991569;28;20022;-71
2022/03/06 01:57:42;;;;;;;16.95;9.07;;;;;;;;;;4991318;28;20034;-71
2022/03/06 02:00:18;;;;;;;19.38;9.02;;;;;;;;;;5067158;28;20453;-71
2022/03/06 02:02:43;;;;;;;20.05;9.98;;;;;;;;;;5067089;28;20457;-71
2022/03/06 02:05:09;;;;;;;19.55;9.07;;;;;;;;;;5067467;28;20025;-71
2022/03/06 02:07:34;;;;;;;17.42;9.63;;;;;;;;;;5067577;28;20048;-71
2022/03/06 02:10:00;;;;;;;15.40;8.57;;;;;;;;;;5066792;28;20059;-72
2022/03/06 02:12:26;;;;;;;18.25;9.00;;;;;;;;;;5067531;28;20074;-72
2022/03/06 02:14:53;;;;;;;16.55;8.82;;;;;;;;;;5066974;28;20033;-72
2022/03/06 02:17:20;;;;;;;18.10;8.35;;;;;;;;;;5067011;28;20510;-71
2022/03/06 02:19:56;;;;;;;17.92;8.63;;;;;;;;;;5066844;28;20025;-71
2022/03/06 02:22:26;;;;;;;18.02;8.25;;;;;;;;;;5067094;28;20103;-71
2022/03/06 02:24:51;;;;;;;16.45;8.27;;;;;;;;;;5066835;28;20024;-72
2022/03/06 02:27:17;;;;;;;16.10;7.75;;;;;;;;;;5065641;28;20086;-71
2022/03/06 02:29:44;;;;;;;15.43;7.93;;;;;;;;;;5066896;28;20072;-72
2022/03/06 02:32:11;;;;;;;16.17;8.35;;;;;;;;;;5066660;28;20032;-71
2022/03/06 02:34:41;;;;;;;17.27;9.23;;;;;;;;;;5066556;28;20375;-71
2022/03/06 02:37:07;;;;;;;18.42;9.35;;;;;;;;;;5066892;28;20284;-72
2022/03/06 02:39:33;;;;;;;17.42;8.90;;;;;;;;;;5066256;28;20099;-71
2022/03/06 02:41:58;;;;;;;15.20;7.85;;;;;;;;;;5065192;28;20033;-72
2022/03/06 02:44:25;;;;;;;18.40;8.70;;;;;;;;;;5066458;28;20446;-72
2022/03/06 02:46:50;;;;;;;18.25;8.80;;;;;;;;;;5066412;28;20384;-71
2022/03/06 02:49:17;;;;;;;17.67;9.32;;;;;;;;;;5066134;28;20028;-71
2022/03/06 02:51:45;;;;;;;18.35;8.48;;;;;;;;;;5066150;28;20029;-71
2022/03/06 02:54:12;;;;;;;17.85;8.98;;;;;;;;;;5066303;28;20017;-71
2022/03/06 02:56:38;;;;;;;19.10;8.88;;;;;;;;;;5066003;28;20048;-70
2022/03/06 02:59:04;;;;;;;13.82;7.55;;;;;;;;;;5065736;28;20478;-71
2022/03/06 03:01:30;;;;;;;14.80;8.07;;;;;;;;;;5066209;28;20052;-72
2022/03/06 03:03:56;;;;;;;20.10;8.82;;;;;;;;;;5066067;28;20273;-71
2022/03/06 03:06:22;;;;;;;21.75;9.27;;;;;;;;;;5066406;28;20144;-72
2022/03/06 03:08:48;;;;;;;20.58;9.82;;;;;;;;;;5066001;28;20047;-71
2022/03/06 03:11:14;;;;;;;17.30;8.23;;;;;;;;;;5055189;28;20028;-72
2022/03/06 03:13:40;;;;;;;16.50;8.35;;;;;;;;;;5052925;28;20260;-71
2022/03/06 03:16:06;;;;;;;15.10;7.78;;;;;;;;;;5052650;28;20025;-72
2022/03/06 03:18:31;;;;;;;15.93;8.23;;;;;;;;;;5052284;28;20021;-71
2022/03/06 03:20:57;;;;;;;13.60;7.18;;;;;;;;;;5052571;28;20056;-72
2022/03/06 03:23:22;;;;;;;14.45;7.70;;;;;;;;;;5052531;28;20021;-72
2022/03/06 03:25:47;;;;;;;16.38;8.23;;;;;;;;;;5052425;28;20109;-72
2022/03/06 03:28:13;;;;;;;16.52;8.13;;;;;;;;;;5052434;28;20025;-71
2022/03/06 03:30:38;;;;;;;15.70;7.50;;;;;;;;;;5052453;28;20024;-72
2022/03/06 03:33:03;;;;;;;16.90;7.90;;;;;;;;;;5052334;28;20032;-72
2022/03/06 03:35:29;;;;;;;15.75;8.02;;;;;;;;;;5052159;28;20033;-71
2022/03/06 03:37:54;;;;;;;18.15;8.60;;;;;;;;;;5052013;28;20029;-72
2022/03/06 03:40:20;;;;;;;12.10;7.18;;;;;;;;;;5052137;28;20517;-72
2022/03/06 03:42:45;;;;;;;16.60;7.97;;;;;;;;;;5052147;28;20020;-72
2022/03/06 03:45:10;;;;;;;17.10;8.65;;;;;;;;;;5052149;28;20032;-72
2022/03/06 03:47:36;;;;;;;14.60;7.65;;;;;;;;;;5052113;28;20028;-71
2022/03/06 03:50:01;;;;;;;16.17;8.13;;;;;;;;;;5051806;28;20252;-72
2022/03/06 03:52:26;;;;;;;15.88;7.85;;;;;;;;;;5052020;28;20083;-72
2022/03/06 03:54:52;;;;;;;17.95;7.85;;;;;;;;;;5051990;28;20021;-71
2022/03/06 03:57:17;;;;;;;15.43;7.75;;;;;;;;;;5051862;28;20029;-72
2022/03/06 03:59:43;;;;;;;15.48;7.47;;;;;;;;;;5051631;28;20029;-72
2022/03/06 04:02:08;;;;;;;14.00;7.90;;;;;;;;;;5051953;28;20035;-72
2022/03/06 04:04:34;;;;;;;14.57;7.50;;;;;;;;;;5051800;28;20082;-72
2022/03/06 04:07:00;;;;;;;17.35;8.10;;;;;;;;;;5052181;28;20023;-72
2022/03/06 04:09:25;;;;;;;17.95;7.88;;;;;;;;;;5051528;28;20350;-72
2022/03/06 04:11:51;;;;;;;16.73;8.05;;;;;;;;;;5051911;28;20179;-72
2022/03/06 04:14:17;;;;;;;15.15;7.50;;;;;;;;;;5051643;28;20479;-72
2022/03/06 04:16:42;;;;;;;14.00;7.30;;;;;;;;;;5051551;28;20048;-72
2022/03/06 04:19:08;;;;;;;19.27;8.43;;;;;;;;;;5051102;28;20467;-72
2022/03/06 04:21:33;;;;;;;15.85;8.38;;;;;;;;;;5050740;28;20265;-72
2022/03/06 04:23:58;;;;;;;15.43;7.25;;;;;;;;;;5051064;28;20033;-71
2022/03/06 04:26:24;;;;;;;15.05;8.27;;;;;;;;;;5051352;28;20017;-72
2022/03/06 04:28:49;;;;;;;14.70;7.30;;;;;;;;;;5051422;28;20517;-72
2022/03/06 04:31:15;;;;;;;14.15;7.65;;;;;;;;;;5051438;28;20350;-72
2022/03/06 04:33:40;;;;;;;14.70;6.90;;;;;;;;;;5051160;28;20025;-72
2022/03/06 04:36:06;;;;;;;16.08;7.97;;;;;;;;;;5051240;28;20475;-72
2022/03/06 04:38:31;;;;;;;12.15;6.80;;;;;;;;;;5050880;28;20460;-71
2022/03/06 04:40:56;;;;;;;14.13;7.38;;;;;;;;;;5051159;28;20040;-72
2022/03/06 04:43:24;;;;;;;13.48;7.25;;;;;;;;;;5051008;28;20021;-72
2022/03/06 04:45:49;;;;;;;15.82;7.68;;;;;;;;;;5051037;28;20025;-72
2022/03/06 04:48:14;;;;;;;12.70;7.70;;;;;;;;;;5050628;28;20100;-72
2022/03/06 04:50:40;;;;;;;13.13;7.28;;;;;;;;;;5050952;28;20154;-72
2022/03/06 04:53:05;;;;;;;15.80;8.70;;;;;;;;;;5050840;28;20032;-72
2022/03/06 04:55:30;;;;;;;17.30;8.85;;;;;;;;;;5050968;28;20049;-72
2022/03/06 04:57:56;;;;;;;17.95;8.80;;;;;;;;;;5050427;28;20087;-72
2022/03/06 05:00:21;;;;;;;16.45;8.10;;;;;;;;;;5051469;28;20032;-72
2022/03/06 05:02:47;;;;;;;14.48;8.10;;;;;;;;;;5050915;28;20025;-72
2022/03/06 05:05:12;;;;;;;18.10;8.25;;;;;;;;;;5050812;28;20024;-72
2022/03/06 05:07:38;;;;;;;15.60;7.68;;;;;;;;;;5050670;28;20025;-72
2022/03/06 05:10:09;;;;;;;16.70;8.10;;;;;;;;;;5050605;28;20283;-72
2022/03/06 05:12:35;;;;;;;14.00;7.53;;;;;;;;;;5050875;28;20021;-71
2022/03/06 05:15:00;;;;;;;14.95;7.65;;;;;;;;;;5050448;28;20083;-71
2022/03/06 05:17:25;;;;;;;17.08;8.35;;;;;;;;;;5050608;28;20115;-72
2022/03/06 05:19:51;;;;;;;15.68;8.23;;;;;;;;;;5050298;28;20017;-72
2022/03/06 05:22:16;;;;;;;16.98;8.50;;;;;;;;;;5050766;28;20041;-72
2022/03/06 05:24:41;;;;;;;14.68;7.90;;;;;;;;;;5050325;28;20040;-72
2022/03/06 05:27:07;;;;;;;15.80;7.82;;;;;;;;;;5049440;28;20071;-71
2022/03/06 05:29:32;;;;;;;19.50;8.27;;;;;;;;;;5050036;28;20441;-72
2022/03/06 05:31:57;;;;;;;16.60;8.27;;;;;;;;;;5050392;28;20033;-72
2022/03/06 05:34:23;;;;;;;13.38;7.22;;;;;;;;;;5050043;28;20029;-72
2022/03/06 05:36:48;;;;;;;15.52;8.20;;;;;;;;;;5050181;28;20108;-72
2022/03/06 05:39:13;;;;;;;17.85;8.43;;;;;;;;;;5049888;28;20017;-71
2022/03/06 05:41:39;;;;;;;13.85;8.07;;;;;;;;;;5050123;28;20052;-72
2022/03/06 05:44:04;;;;;;;14.25;8.18;;;;;;;;;;5050023;28;20021;-72
2022/03/06 05:46:29;;;;;;;18.10;8.43;;;;;;;;;;5049924;28;20025;-71
2022/03/06 05:48:55;;;;;;;16.30;7.22;;;;;;;;;;5049689;28;20522;-72
2022/03/06 05:51:20;;;;;;;14.40;7.68;;;;;;;;;;5050056;28;20025;-71
2022/03/06 05:53:45;;;;;;;16.55;8.13;;;;;;;;;;5050484;28;20099;-72
2022/03/06 05:56:11;;;;;;;15.10;7.90;;;;;;;;;;5050156;28;20016;-72
2022/03/06 05:58:36;;;;;;;13.95;7.30;;;;;;;;;;5049587;28;20033;-71
2022/03/06 06:01:01;;;;;;;15.55;7.75;;;;;;;;;;5049982;28;20170;-72
2022/03/06 06:03:27;;;;;;;15.50;8.25;;;;;;;;;;5049948;28;20036;-72
2022/03/06 06:05:52;;;;;;;18.83;8.20;;;;;;;;;;5049618;28;20104;-72
2022/03/06 06:08:17;;;;;;;27.92;11.20;;;;;;;;;;5049885;28;20031;-72
2022/03/06 06:10:44;;;;;;;26.60;11.18;;;;;;;;;;5049873;28;20220;-71
2022/03/06 06:13:09;;;;;;;34.78;18.13;;;;;;;;;;5048667;28;20028;-72
2022/03/06 06:15:37;;;;;;;35.88;15.60;;;;;;;;;;5049679;28;20032;-72
2022/03/06 06:18:02;;;;;;;21.60;12.25;;;;;;;;;;5049352;28;20096;-72
2022/03/06 06:20:27;;;;;;;20.50;10.60;;;;;;;;;;5049815;28;20061;-72
2022/03/06 06:22:53;;;;;;;21.35;11.27;;;;;;;;;;5049746;28;20182;-71
2022/03/06 06:25:18;;;;;;;17.25;8.88;;;;;;;;;;5049516;28;20036;-72
2022/03/06 06:27:43;;;;;;;19.38;9.30;;;;;;;;;;5049426;28;20052;-72
2022/03/06 06:30:09;;;;;;;17.67;10.05;;;;;;;;;;5049283;28;20483;-71
2022/03/06 06:32:35;;;;;;;19.23;10.55;;;;;;;;;;5049415;28;20442;-72
2022/03/06 06:35:00;;;;;;;27.13;12.93;;;;;;;;;;5049377;28;20057;-72
2022/03/06 06:37:25;;;;;;;19.17;11.45;;;;;;;;;;5049501;28;20055;-72
2022/03/06 06:39:50;;;;;;;23.90;10.63;;;;;;;;;;5049305;28;20025;-72
2022/03/06 06:42:16;;;;;;;16.85;9.50;;;;;;;;;;5049361;28;20615;-72
2022/03/06 06:44:41;;;;;;;24.13;11.93;;;;;;;;;;5046067;28;20075;-72
2022/03/06 06:47:07;;;;;;;22.33;11.43;;;;;;;;;;5052967;28;20029;-72
2022/03/06 06:49:32;;;;;;;17.35;9.35;;;;;;;;;;5052969;28;20048;-72
2022/03/06 06:51:58;;;;;;;19.92;9.52;;;;;;;;;;5052943;28;20029;-72
2022/03/06 06:54:23;;;;;;;16.70;9.85;;;;;;;;;;5047576;28;20082;-72
2022/03/06 06:56:49;;;;;;;18.90;9.40;;;;;;;;;;5051055;28;20078;-72
2022/03/06 06:59:14;;;;;;;14.55;8.10;;;;;;;;;;5052724;28;20021;-71
2022/03/06 07:01:40;;;;;;;18.40;9.77;;;;;;;;;;5052898;28;20063;-72
2022/03/06 07:04:06;;;;;;;18.52;9.15;;;;;;;;;;5053199;28;20445;-72
2022/03/06 07:06:31;;;;;;;16.20;8.68;;;;;;;;;;5052968;28;20104;-72
2022/03/06 07:08:56;;;;;;;17.52;8.18;;;;;;;;;;5052584;28;20382;-71
2022/03/06 07:11:21;;;;;;;16.67;8.20;;;;;;;;;;5052745;28;20159;-72
2022/03/06 07:13:47;;;;;;;19.80;9.00;;;;;;;;;;5052843;28;20035;-72
2022/03/06 07:16:13;;;;;;;17.35;8.40;;;;;;;;;;5052530;28;20032;-72
2022/03/06 07:18:38;;;;;;;16.83;9.27;;;;;;;;;;5052590;28;20024;-72
2022/03/06 07:21:04;;;;;;;18.92;9.05;;;;;;;;;;5052699;28;20037;-72
2022/03/06 07:23:30;;;;;;;17.02;9.23;;;;;;;;;;5045996;28;20069;-72
2022/03/06 07:25:56;;;;;;;16.10;8.02;;;;;;;;;;5047444;28;20532;-72
2022/03/06 07:28:22;;;;;;;23.40;10.68;;;;;;;;;;5052106;28;20029;-72
2022/03/06 07:30:48;;;;;;;33.22;14.75;;;;;;;;;;5047343;28;20094;-72
2022/03/06 07:33:13;;;;;;;17.52;9.95;;;;;;;;;;5041931;28;20029;-71
2022/03/06 07:35:39;;;;;;;16.55;9.20;;;;;;;;;;5051646;28;20017;-73
2022/03/06 07:38:04;;;;;;;17.23;9.35;;;;;;;;;;5051807;28;20545;-73
2022/03/06 07:40:29;;;;;;;15.27;8.55;;;;;;;;;;5051728;28;20108;-72
2022/03/06 07:42:55;;;;;;;14.18;8.13;;;;;;;;;;5051847;28;20025;-73
2022/03/06 07:45:20;;;;;;;13.32;8.32;;;;;;;;;;5052024;28;20024;-73
2022/03/06 07:47:45;;;;;;;14.73;8.75;;;;;;;;;;5050579;28;20447;-73
2022/03/06 07:50:13;;;;;;;14.40;8.23;;;;;;;;;;5051843;28;20538;-73
2022/03/06 07:52:38;;;;;;;13.50;8.48;;;;;;;;;;5051917;28;20029;-72
2022/03/06 07:55:06;;;;;;;14.27;8.63;;;;;;;;;;5051766;28;20035;-71
2022/03/06 07:57:31;;;;;;;14.45;8.02;;;;;;;;;;5052210;28;20074;-73
2022/03/06 07:59:57;;;;;;;19.80;11.00;;;;;;;;;;5051435;28;20119;-72
2022/03/06 08:02:22;;;;;;;14.23;9.80;;;;;;;;;;5051231;28;20033;-71
2022/03/06 08:04:47;;;;;;;14.45;8.98;;;;;;;;;;5051613;28;20017;-71
2022/03/06 08:07:13;;;;;;;16.83;10.35;;;;;;;;;;5051588;28;20179;-72
2022/03/06 08:09:38;;;;;;;13.82;8.25;;;;;;;;;;5051338;28;20021;-71
2022/03/06 08:12:04;;;;;;;15.10;9.00;;;;;;;;;;5058760;22;20050;-70
2022/03/06 08:14:30;;;;;;;44.70;23.02;;;;;;;;;;5031562;28;20395;-70
2022/03/06 08:16:55;;;;;;;20.85;10.98;;;;;;;;;;5031259;28;20029;-70
2022/03/06 08:19:21;;;;;;;18.60;10.82;;;;;;;;;;5031530;28;20109;-70
2022/03/06 08:21:48;;;;;;;14.32;9.20;;;;;;;;;;5031134;28;20501;-70
2022/03/06 08:24:14;;;;;;;11.85;8.15;;;;;;;;;;5031407;28;20060;-70
2022/03/06 08:26:39;;;;;;;12.00;8.55;;;;;;;;;;5031466;28;20049;-70
2022/03/06 08:29:04;;;;;;;11.93;8.60;;;;;;;;;;5030996;28;20029;-70
2022/03/06 08:31:30;;;;;;;13.82;8.50;;;;;;;;;;5031074;28;20068;-70
2022/03/06 08:33:55;;;;;;;12.98;8.73;;;;;;;;;;5029555;28;20235;-71
2022/03/06 08:36:20;;;;;;;14.05;9.55;;;;;;;;;;5037512;28;20040;-70
2022/03/06 08:38:46;;;;;;;14.95;9.85;;;;;;;;;;5041079;28;20410;-70
2022/03/06 08:41:11;;;;;;;14.52;9.95;;;;;;;;;;5048821;28;20040;-70
2022/03/06 08:43:37;;;;;;;14.13;9.68;;;;;;;;;;5051108;28;20029;-71
2022/03/06 08:46:03;;;;;;;13.32;9.32;;;;;;;;;;5050790;28;20024;-70
2022/03/06 08:48:29;;;;;;;14.07;10.00;;;;;;;;;;5051004;28;20071;-70
2022/03/06 08:50:55;;;;;;;13.90;9.15;;;;;;;;;;5050929;28;20025;-71
2022/03/06 08:53:20;;;;;;;13.25;9.20;;;;;;;;;;5050460;28;20036;-71
2022/03/06 08:55:46;;;;;;;14.73;9.90;;;;;;;;;;5050649;28;20029;-70
2022/03/06 08:58:11;;;;;;;16.25;10.70;;;;;;;;;;5050790;28;20155;-71
2022/03/06 09:00:36;;;;;;;14.85;9.23;;;;;;;;;;5050812;28;20055;-71
2022/03/06 09:03:02;;;;;;;13.50;9.57;;;;;;;;;;5049491;28;20023;-70
2022/03/06 09:05:27;;;;;;;13.32;8.90;;;;;;;;;;5050680;28;20064;-70
2022/03/06 09:07:53;;;;;;;11.60;8.98;;;;;;;;;;5047814;28;20052;-71
2022/03/06 09:10:18;;;;;;;10.98;8.05;;;;;;;;;;5039874;28;20115;-71
2022/03/06 09:12:44;;;;;;;14.50;10.15;;;;;;;;;;5043906;28;20122;-71
2022/03/06 09:15:10;;;;;;;12.63;9.40;;;;;;;;;;5040799;28;20025;-71
2022/03/06 09:17:36;;;;;;;13.85;9.68;;;;;;;;;;5040458;28;20036;-71
2022/03/06 09:20:02;;;;;;;11.65;8.52;;;;;;;;;;5041315;28;20485;-71
2022/03/06 09:22:28;;;;;;;13.07;9.30;;;;;;;;;;5050138;28;20025;-71
2022/03/06 09:24:53;;;;;;;14.15;10.07;;;;;;;;;;5051253;28;20021;-73
2022/03/06 09:27:19;;;;;;;13.10;9.07;;;;;;;;;;5052990;28;20052;-73
2022/03/06 09:29:44;;;;;;;12.70;8.88;;;;;;;;;;5050982;28;20108;-74
2022/03/06 09:32:09;;;;;;;12.48;8.68;;;;;;;;;;5031762;28;20509;-74
2022/03/06 09:34:35;;;;;;;11.73;8.57;;;;;;;;;;5033158;28;20108;-74
2022/03/06 09:37:00;;;;;;;11.50;8.10;;;;;;;;;;5033078;28;20434;-74
2022/03/06 09:39:26;;;;;;;10.55;7.65;;;;;;;;;;5033779;28;20037;-74
2022/03/06 09:41:54;;;;;;;10.98;7.70;;;;;;;;;;5033373;28;20421;-73
2022/03/06 09:44:22;;;;;;;12.05;8.02;;;;;;;;;;5031785;28;20074;-74
2022/03/06 09:46:48;;;;;;;11.98;9.07;;;;;;;;;;5033437;28;20057;-74
2022/03/06 09:49:13;;;;;;;10.65;8.18;;;;;;;;;;5032791;28;20028;-74
2022/03/06 09:51:41;;;;;;;9.35;7.70;;;;;;;;;;5032203;28;20033;-74
2022/03/06 09:54:08;;;;;;;8.68;7.25;;;;;;;;;;5032990;28;20021;-74
2022/03/06 09:56:34;;;;;;;10.43;8.00;;;;;;;;;;5030207;28;20514;-74
2022/03/06 09:58:59;;;;;;;10.70;7.93;;;;;;;;;;5032473;28;20033;-77
2022/03/06 10:01:25;;;;;;;10.70;7.75;;;;;;;;;;5032827;28;20191;-76
2022/03/06 10:03:50;;;;;;;9.15;7.55;;;;;;;;;;5032307;28;20030;-76
2022/03/06 10:06:15;;;;;;;9.95;8.18;;;;;;;;;;5032068;28;20088;-74
2022/03/06 10:08:41;;;;;;;10.10;8.18;;;;;;;;;;5032706;28;20087;-74
2022/03/06 10:11:09;;;;;;;10.00;7.95;;;;;;;;;;5032318;28;20038;-75
2022/03/06 10:13:37;;;;;;;9.63;7.13;;;;;;;;;;5031649;28;20108;-76
2022/03/06 10:16:15;;;;;;;8.45;6.85;;;;;;;;;;5032442;28;20022;-75
2022/03/06 10:18:41;;;;;;;10.00;7.47;;;;;;;;;;5032818;28;20030;-76
2022/03/06 10:21:15;;;;;;;17.90;12.77;;;;;;;;;;5035854;28;20021;-76
2022/03/06 10:23:41;;;;;;;18.60;12.60;;;;;;;;;;5036993;28;20046;-76
2022/03/06 10:26:12;;;;;;;16.25;13.27;;;;;;;;;;5037591;28;20037;-76
2022/03/06 10:28:50;;;;;;;8.73;7.50;;;;;;;;;;5034743;28;20025;-72
2022/03/06 10:31:17;;;;;;;9.82;7.55;;;;;;;;;;5032418;28;20057;-72
2022/03/06 10:34:06;;;;;;;8.88;7.97;;;;;;;;;;5033148;28;20087;-72
2022/03/06 10:36:37;;;;;;;8.27;5.70;;;;;;;;;;5027306;28;20483;-71
2022/03/06 10:39:09;;;;;;;7.30;6.35;;;;;;;;;;5033157;28;20025;-73
2022/03/06 10:41:38;;;;;;;10.38;6.50;;;;;;;;;;5033353;28;20025;-73
2022/03/06 10:44:04;;;;;;;8.73;6.07;;;;;;;;;;5033644;28;20045;-72
2022/03/06 10:46:33;;;;;;;6.68;6.00;;;;;;;;;;5031318;28;20029;-71
2022/03/06 10:49:02;;;;;;;8.32;6.28;;;;;;;;;;5025051;28;20032;-72
2022/03/06 10:51:28;;;;;;;10.73;8.85;;;;;;;;;;5033137;28;20086;-71
2022/03/06 10:53:55;;;;;;;7.43;6.50;;;;;;;;;;5032434;28;20013;-72
2022/03/06 10:56:21;;;;;;;7.32;5.15;;;;;;;;;;5031771;28;20033;-72
2022/03/06 10:58:48;;;;;;;8.80;5.75;;;;;;;;;;5031528;28;20029;-71
2022/03/06 11:01:14;;;;;;;7.63;6.25;;;;;;;;;;5038419;28;20031;-71
2022/03/06 11:03:40;;;;;;;9.70;5.70;;;;;;;;;;5052536;28;20020;-73
2022/03/06 11:06:08;;;;;;;7.07;6.03;;;;;;;;;;5052735;28;20099;-71
2022/03/06 11:08:34;;;;;;;8.52;6.30;;;;;;;;;;5052473;28;20075;-72
2022/03/06 11:11:03;;;;;;;6.45;5.47;;;;;;;;;;5052541;28;20453;-70
2022/03/06 11:13:29;;;;;;;7.72;5.25;;;;;;;;;;5052655;28;20036;-70
2022/03/06 11:15:56;;;;;;;6.82;5.80;;;;;;;;;;5052541;28;20044;-70
2022/03/06 11:18:26;;;;;;;7.15;6.00;;;;;;;;;;5032721;28;20033;-70
2022/03/06 11:20:53;;;;;;;17.05;10.77;;;;;;;;;;5032608;28;20167;-71
2022/03/06 11:23:43;;;;;;;7.43;6.22;;;;;;;;;;5029476;28;20310;-71
2022/03/06 11:26:15;;;;;;;7.97;5.65;;;;;;;;;;5030566;28;20037;-71
2022/03/06 11:28:43;;;;;;;7.43;5.53;;;;;;;;;;5031331;28;20021;-72
2022/03/06 11:31:08;;;;;;;8.00;5.38;;;;;;;;;;5031463;28;20112;-73
2022/03/06 11:33:34;;;;;;;7.90;5.50;;;;;;;;;;5032357;28;20125;-72
2022/03/06 11:36:18;;;;;;;7.03;5.13;;;;;;;;;;5032588;28;20021;-71
2022/03/06 11:38:46;;;;;;;7.40;5.70;;;;;;;;;;5031712;28;20026;-71
2022/03/06 11:41:12;;;;;;;6.93;5.30;;;;;;;;;;5016628;28;20029;-71
2022/03/06 11:43:44;;;;;;;7.28;5.75;;;;;;;;;;5031990;28;20032;-71
2022/03/06 11:46:14;;;;;;;15.52;9.65;;;;;;;;;;5028233;28;20029;-71
2022/03/06 11:48:39;;;;;;;8.82;6.43;;;;;;;;;;5027628;28;20083;-71
2022/03/06 11:51:23;;;;;;;32.22;18.02;;;;;;;;;;5031079;28;20041;-72
2022/03/06 11:54:14;;;;;;;8.95;5.93;;;;;;;;;;5032322;28;20177;-70
2022/03/06 11:56:53;;;;;;;52.75;28.23;;;;;;;;;;5032164;28;20025;-71
2022/03/06 11:59:23;;;;;;;19.45;11.60;;;;;;;;;;5031396;28;20364;-71
2022/03/06 12:01:51;;;;;;;9.15;6.70;;;;;;;;;;5031756;28;20497;-70
2022/03/06 12:04:18;;;;;;;16.00;10.98;;;;;;;;;;5031849;28;20026;-71
2022/03/06 12:06:45;;;;;;;18.33;12.95;;;;;;;;;;5031822;28;20080;-71
2022/03/06 12:09:30;;;;;;;9.50;7.45;;;;;;;;;;5031330;28;20048;-70
2022/03/06 12:12:02;;;;;;;10.38;7.65;;;;;;;;;;5031592;28;20037;-70
2022/03/06 12:14:31;;;;;;;9.03;7.00;;;;;;;;;;5031621;28;20052;-72
2022/03/06 12:17:10;;;;;;;8.25;6.32;;;;;;;;;;5031896;28;20263;-74
2022/03/06 12:19:45;;;;;;;10.00;7.40;;;;;;;;;;5030912;28;20048;-72
2022/03/06 12:22:21;;;;;;;6.97;5.63;;;;;;;;;;5031490;28;20033;-71
2022/03/06 12:24:49;;;;;;;9.30;6.82;;;;;;;;;;5031511;28;20318;-74
2022/03/06 12:27:20;;;;;;;7.45;5.45;;;;;;;;;;5030418;28;20155;-73
2022/03/06 12:29:48;;;;;;;7.20;6.00;;;;;;;;;;5030682;28;20040;-71
2022/03/06 12:32:25;;;;;;;7.78;5.45;;;;;;;;;;5031700;28;20411;-71
2022/03/06 12:34:56;;;;;;;8.40;5.63;;;;;;;;;;5031286;28;20030;-72
2022/03/06 12:37:32;;;;;;;7.18;5.22;;;;;;;;;;5031035;28;20036;-72
2022/03/06 12:39:59;;;;;;;8.95;6.20;;;;;;;;;;5030831;28;20104;-73
2022/03/06 12:42:26;;;;;;;7.38;5.40;;;;;;;;;;5030686;28;20036;-70
2022/03/06 12:45:06;;;;;;;7.75;5.30;;;;;;;;;;5030528;28;20021;-71
2022/03/06 12:47:32;;;;;;;7.60;4.90;;;;;;;;;;5031003;28;20100;-72
2022/03/06 12:49:59;;;;;;;7.55;5.22;;;;;;;;;;5026600;28;20105;-72
2022/03/06 12:52:26;;;;;;;8.30;5.43;;;;;;;;;;5029987;28;20033;-72
2022/03/06 12:54:53;;;;;;;9.40;5.78;;;;;;;;;;5030807;28;20025;-74
2022/03/06 12:57:20;;;;;;;8.27;6.35;;;;;;;;;;5030946;28;20079;-72
2022/03/06 12:59:49;;;;;;;8.00;5.72;;;;;;;;;;5030997;28;20139;-71
2022/03/06 13:02:18;;;;;;;7.35;5.70;;;;;;;;;;5029748;28;20025;-70
2022/03/06 13:04:49;;;;;;;7.80;5.93;;;;;;;;;;5030679;28;20403;-72
2022/03/06 13:07:15;;;;;;;9.38;6.18;;;;;;;;;;5030847;28;20033;-73
2022/03/06 13:09:40;;;;;;;9.85;6.32;;;;;;;;;;5030551;28;20038;-72
2022/03/06 13:12:06;;;;;;;11.75;7.00;;;;;;;;;;5030720;28;20036;-73
2022/03/06 13:14:39;;;;;;;10.85;7.65;;;;;;;;;;5029717;28;20021;-72
2022/03/06 13:17:10;;;;;;;12.05;8.23;;;;;;;;;;5030700;28;20112;-73
2022/03/06 13:19:47;;;;;;;9.32;6.63;;;;;;;;;;5030337;28;20025;-73
2022/03/06 13:22:15;;;;;;;12.45;8.82;;;;;;;;;;5030602;28;20032;-73
2022/03/06 13:24:45;;;;;;;10.00;7.40;;;;;;;;;;5030456;28;20025;-72
2022/03/06 13:27:20;;;;;;;9.80;7.25;;;;;;;;;;5030471;28;20106;-73
2022/03/06 13:30:03;;;;;;;9.75;6.90;;;;;;;;;;5030085;28;20021;-73
2022/03/06 13:32:31;;;;;;;11.68;6.85;;;;;;;;;;5030359;28;20093;-73
2022/03/06 13:34:58;;;;;;;10.88;6.55;;;;;;;;;;5030134;28;20025;-73
2022/03/06 13:37:35;;;;;;;7.28;6.45;;;;;;;;;;5028968;28;20097;-71
2022/03/06 13:40:00;;;;;;;8.85;6.47;;;;;;;;;;5030057;28;20021;-74
2022/03/06 13:42:34;;;;;;;10.40;6.43;;;;;;;;;;5030208;28;20452;-71
2022/03/06 13:45:02;;;;;;;10.77;6.20;;;;;;;;;;5030229;28;20026;-71
2022/03/06 13:47:52;;;;;;;7.38;5.65;;;;;;;;;;5030436;28;20026;-72
2022/03/06 13:50:17;;;;;;;8.73;6.43;;;;;;;;;;5030322;28;20029;-73
2022/03/06 13:52:42;;;;;;;8.82;6.78;;;;;;;;;;5030283;28;20037;-73
2022/03/06 13:55:10;;;;;;;10.55;6.93;;;;;;;;;;5030017;28;20028;-74
2022/03/06 13:57:36;;;;;;;9.85;6.20;;;;;;;;;;5030309;28;20032;-71
2022/03/06 14:00:42;;;;;;;7.68;6.15;;;;;;;;;;5029834;28;20479;-71
2022/03/06 14:03:10;;;;;;;8.88;6.10;;;;;;;;;;4999715;28;20045;-71
2022/03/06 14:05:38;;;;;;;8.77;6.15;;;;;;;;;;5030176;28;20032;-72
2022/03/06 14:08:27;;;;;;;9.43;6.32;;;;;;;;;;5030146;28;20033;-73
2022/03/06 14:10:59;;;;;;;8.35;6.22;;;;;;;;;;5030469;28;20563;-73
2022/03/06 14:13:35;;;;;;;13.93;9.30;;;;;;;;;;5030262;28;20376;-70
2022/03/06 14:16:02;;;;;;;11.10;6.93;;;;;;;;;;5030021;28;20055;-72
2022/03/06 14:18:49;;;;;;;8.90;6.63;;;;;;;;;;5029777;28;20044;-71
2022/03/06 14:21:25;;;;;;;9.40;6.53;;;;;;;;;;5029770;28;20025;-72
2022/03/06 14:23:55;;;;;;;10.65;7.85;;;;;;;;;;5030050;28;20184;-71
2022/03/06 14:26:25;;;;;;;10.68;6.85;;;;;;;;;;5029985;28;20117;-72
2022/03/06 14:28:54;;;;;;;9.70;6.45;;;;;;;;;;5028258;28;20036;-71
2022/03/06 14:31:20;;;;;;;10.15;6.95;;;;;;;;;;5029731;28;20159;-68